createdAt,value
2018-06-10T00:17:41.057Z,64.90
2018-06-10T00:20:08.737Z,64.90
2018-06-10T00:22:36.311Z,64.90
2018-06-10T00:25:03.875Z,64.80
2018-06-10T00:27:31.429Z,64.80
2018-06-10T00:46:43.129Z,64.40
2018-06-10T00:49:10.618Z,64.40
2018-06-10T00:51:38.667Z,64.50
2018-06-10T00:54:06.236Z,64.30
2018-06-10T00:56:39.369Z,64.30
2018-06-10T00:59:06.954Z,64.30
2018-06-10T01:01:34.517Z,64.30
2018-06-10T01:04:02.068Z,64.20
2018-06-10T01:06:29.763Z,64.20
2018-06-10T01:09:00.361Z,64.10
2018-06-10T01:11:28.043Z,64.10
2018-06-10T01:13:55.575Z,64.90
2018-06-10T01:16:23.322Z,64.00
2018-06-10T01:18:50.864Z,63.90
2018-06-10T01:21:18.478Z,64.00
2018-06-10T01:23:46.011Z,64.00
2018-06-10T01:26:17.869Z,64.00
2018-06-10T01:28:45.592Z,64.00
2018-06-10T01:31:13.141Z,64.00
2018-06-10T01:33:40.715Z,64.10
2018-06-10T01:36:08.367Z,64.40
2018-06-10T02:11:47.040Z,65.90
2018-06-10T02:14:14.604Z,66.00
2018-06-10T02:35:55.521Z,66.30
2018-06-10T02:38:23.087Z,66.30
2018-06-10T02:40:50.733Z,66.40
2018-06-10T02:43:18.380Z,66.40
2018-06-10T02:45:46.168Z,66.50
2018-06-10T02:48:13.808Z,66.50
2018-06-10T02:50:41.358Z,66.60
2018-06-10T02:53:09.020Z,66.60
2018-06-10T02:55:36.585Z,66.60
2018-06-10T03:14:39.595Z,66.50
2018-06-10T03:17:07.224Z,66.60
2018-06-10T03:19:34.752Z,66.70
2018-06-10T03:24:29.511Z,66.50
2018-06-10T03:26:57.121Z,66.50
2018-06-10T03:31:51.965Z,66.60
2018-06-10T03:34:19.567Z,66.70
2018-06-10T03:36:47.125Z,66.70
2018-06-10T03:39:14.682Z,66.70
2018-06-10T03:41:42.214Z,66.70
2018-06-10T03:44:09.851Z,66.80
2018-06-10T03:46:37.511Z,66.90
2018-06-10T03:49:05.064Z,66.90
2018-06-10T03:51:32.586Z,66.90
2018-06-10T03:56:27.399Z,66.90
2018-06-10T04:01:22.331Z,66.90
2018-06-10T04:03:49.888Z,66.80
2018-06-10T04:06:17.985Z,66.80
2018-06-10T04:08:45.532Z,66.80
2018-06-10T04:11:13.215Z,66.80
2018-06-10T04:13:40.679Z,66.80
2018-06-10T04:18:35.515Z,66.80
2018-06-10T04:21:03.155Z,66.80
2018-06-10T04:28:25.172Z,66.80
2018-06-10T04:30:52.709Z,66.80
2018-06-10T04:35:47.572Z,66.80
2018-06-10T04:40:42.419Z,66.90
2018-06-10T04:43:09.961Z,66.80
2018-06-10T04:45:37.447Z,66.80
2018-06-10T04:48:05.164Z,66.80
2018-06-10T04:53:00.050Z,66.80
2018-06-10T04:55:27.611Z,66.70
2018-06-10T04:57:55.172Z,66.70
2018-06-10T05:00:22.715Z,66.80
2018-06-10T05:02:50.338Z,66.80
2018-06-10T05:32:54.207Z,67.00
2018-06-10T05:35:21.831Z,67.00
2018-06-10T05:37:49.495Z,67.00
2018-06-10T05:42:44.415Z,66.80
2018-06-10T05:45:11.966Z,66.70
2018-06-10T05:47:39.580Z,66.80
2018-06-10T05:52:51.878Z,66.90
2018-06-10T05:55:19.455Z,66.90
2018-06-10T05:57:47.000Z,66.80
2018-06-10T06:00:14.556Z,66.90
2018-06-10T06:02:42.127Z,66.80
2018-06-10T06:05:09.697Z,66.80
2018-06-10T06:10:04.549Z,66.80
2018-06-10T06:12:32.201Z,66.80
2018-06-10T06:20:31.414Z,66.70
2018-06-10T06:22:59.024Z,66.80
2018-06-10T06:25:27.046Z,66.80
2018-06-10T06:30:22.665Z,66.70
2018-06-10T06:35:17.440Z,66.60
2018-06-10T06:57:05.498Z,66.20
2018-06-10T07:35:28.940Z,67.30
2018-06-10T07:37:56.604Z,67.30
2018-06-10T07:40:24.481Z,66.90
2018-06-10T07:42:52.056Z,67.10
2018-06-10T08:02:04.846Z,67.60
2018-06-10T08:04:32.496Z,67.20
2018-06-10T08:07:00.173Z,67.20
2018-06-10T08:09:28.080Z,67.20
2018-06-10T08:31:15.153Z,67.20
2018-06-10T08:33:42.774Z,66.80
2018-06-10T08:36:10.484Z,66.60
2018-06-10T08:55:21.156Z,66.10
2018-06-10T08:57:48.839Z,66.00
2018-06-10T09:00:16.433Z,65.80
2018-06-10T09:19:29.993Z,65.00
2018-06-10T09:21:57.820Z,64.70
2018-06-10T09:43:45.914Z,62.90
2018-06-10T09:46:13.560Z,62.70
2018-06-10T10:05:24.823Z,62.00
2018-06-10T10:27:12.315Z,60.70
2018-06-10T10:32:07.547Z,60.30
2018-06-10T10:34:35.318Z,60.30
2018-06-10T10:37:03.022Z,60.10
2018-06-10T10:39:30.765Z,60.00
2018-06-10T10:44:25.897Z,60.00
2018-06-10T10:49:39.483Z,59.80
2018-06-10T11:08:53.995Z,59.20
2018-06-10T11:11:21.885Z,59.30
2018-06-10T11:13:49.474Z,59.10
2018-06-10T11:16:17.220Z,59.10
2018-06-10T11:18:44.919Z,59.10
2018-06-10T11:21:12.487Z,59.00
2018-06-10T11:23:40.367Z,58.90
2018-06-10T11:26:07.964Z,58.90
2018-06-10T11:47:54.858Z,58.60
2018-06-10T11:52:49.951Z,58.60
2018-06-10T12:14:36.925Z,58.60
2018-06-10T12:17:04.700Z,58.80
2018-06-10T12:19:36.380Z,59.00
2018-06-10T12:41:23.427Z,58.00
2018-06-10T13:00:35.154Z,58.10
2018-06-10T13:03:02.758Z,58.00
2018-06-10T13:22:12.096Z,58.40
2018-06-10T13:24:39.662Z,58.40
2018-06-10T13:27:07.398Z,58.20
2018-06-10T13:29:34.965Z,58.20
2018-06-10T13:32:02.516Z,58.10
2018-06-10T13:34:30.210Z,58.00
2018-06-10T14:04:35.269Z,59.20
2018-06-10T14:07:02.859Z,58.50
2018-06-10T14:09:30.470Z,58.30
2018-06-10T14:11:59.594Z,58.30
2018-06-10T14:31:12.486Z,57.90
2018-06-10T14:33:40.077Z,57.90
2018-06-10T14:36:07.750Z,57.90
2018-06-10T14:38:35.436Z,57.70
2018-06-10T14:41:03.020Z,58.20
2018-06-10T14:43:31.365Z,57.30
2018-06-10T14:45:59.234Z,57.40
2018-06-10T14:48:26.801Z,57.00
2018-06-10T14:50:54.485Z,57.00
2018-06-10T14:53:22.113Z,57.00
2018-06-10T15:45:39.429Z,57.00
2018-06-10T16:04:56.518Z,56.80
2018-06-10T16:07:24.165Z,56.50
2018-06-10T16:09:51.896Z,56.20
2018-06-10T16:12:19.711Z,56.20
2018-06-10T16:14:47.763Z,56.20
2018-06-10T16:17:15.431Z,56.10
2018-06-10T16:55:37.235Z,57.20
2018-06-10T16:58:05.634Z,57.20
2018-06-10T17:36:26.048Z,57.70
2018-06-10T17:55:38.058Z,57.70
2018-06-10T18:14:47.456Z,58.20
2018-06-10T18:17:15.062Z,58.10
2018-06-10T18:36:25.668Z,58.40
2018-06-10T18:55:35.740Z,58.70
2018-06-10T18:58:03.326Z,59.40
2018-06-10T19:17:17.163Z,59.00
2018-06-10T19:19:44.843Z,59.10
2018-06-10T19:22:12.552Z,59.20
2018-06-10T19:24:40.226Z,59.30
2018-06-10T19:27:07.838Z,59.40
2018-06-10T19:29:35.438Z,60.00
2018-06-10T19:48:46.818Z,63.40
2018-06-10T20:08:02.117Z,63.80
2018-06-10T20:10:37.416Z,63.70
2018-06-10T20:13:05.041Z,63.70
2018-06-10T20:15:32.593Z,63.90
2018-06-10T20:34:47.442Z,61.60
2018-06-10T20:37:15.020Z,61.30
2018-06-10T20:39:42.771Z,61.20
2018-06-10T20:58:57.572Z,60.10
2018-06-10T21:01:27.149Z,60.00
2018-06-10T21:06:22.087Z,59.70
2018-06-10T21:08:49.760Z,59.70
2018-06-10T21:11:17.420Z,59.50
2018-06-10T21:13:45.441Z,59.50
2018-06-10T21:16:13.036Z,59.50
2018-06-10T21:18:40.587Z,59.30
2018-06-10T21:21:08.327Z,59.00
2018-06-10T21:42:48.573Z,58.90
2018-06-10T21:45:16.709Z,58.90
2018-06-10T21:47:44.433Z,59.00
2018-06-10T21:55:06.624Z,59.00
2018-06-10T21:57:34.251Z,58.90
2018-06-10T22:02:29.279Z,58.70
2018-06-10T22:04:56.858Z,58.70
2018-06-10T22:07:24.905Z,58.50
2018-06-10T22:09:52.504Z,58.30
2018-06-10T22:12:22.105Z,58.10
2018-06-10T22:31:36.213Z,57.60
2018-06-10T22:34:04.002Z,57.70
2018-06-10T22:36:31.770Z,57.60
2018-06-10T22:38:59.380Z,57.60
2018-06-10T22:43:54.300Z,57.60
2018-06-10T23:03:07.492Z,57.30
2018-06-10T23:05:35.150Z,57.20
2018-06-10T23:08:02.698Z,57.20
2018-06-10T23:10:30.261Z,57.10
2018-06-10T23:12:57.848Z,57.10
2018-06-10T23:22:47.437Z,56.90
2018-06-10T23:25:15.083Z,56.80
2018-06-10T23:27:42.637Z,56.70
2018-06-10T23:30:10.225Z,56.70
2018-06-10T23:32:37.992Z,56.70
2018-06-10T23:35:05.480Z,56.80
2018-06-10T23:37:33.060Z,56.70
2018-06-10T23:40:00.642Z,56.70
2018-06-10T23:42:28.212Z,56.70
2018-06-10T23:44:55.787Z,56.70
